<?xml version="1.0" encoding="UTF-8" standalone="no" ?>
<gpx xmlns="http://www.topografix.com/GPX/1/1" xmlns:xsi="http://www.w3.org/2001/XMLSchema-instance" xsi:schemaLocation="http://www.topografix.com/GPX/1/1 http://www.topografix.com/GPX/1/1/gpx.xsd" version="1.1" creator="VisuGPX - https://www.visugpx.com">
  <metadata>
    <name>Acqueduc - chateau de la reine Jeanne- Ermitage</name>
    <desc><![CDATA[départ du parking vers l'aqueduc de Roquefavour. 
 Au retour au parking: petit crochet vers le château de la reine Jeanne.
Départ en voiture pour le second tracé:  balade dans les vestiges  de l'ermitage St Honnorat]]></desc>
  </metadata>
  <trk>
    <name><![CDATA[Acqueduc - chateau de la reine Jeanne- Ermitage_2]]></name>
    <trkseg>
      <trkpt lat="43.51639" lon="5.30723">
        <ele>98.67</ele>
        <time>2020-01-09T13:19:15Z</time>
      </trkpt>
      <trkpt lat="43.51637" lon="5.30721">
        <ele>98.19</ele>
        <time>2020-01-09T13:19:16Z</time>
      </trkpt>
      <trkpt lat="43.51622" lon="5.30721">
        <ele>97.23</ele>
        <time>2020-01-09T13:19:29Z</time>
      </trkpt>
      <trkpt lat="43.51591" lon="5.30734">
        <ele>94.83</ele>
        <time>2020-01-09T13:19:36Z</time>
      </trkpt>
      <trkpt lat="43.51564" lon="5.30772">
        <ele>92.9</ele>
        <time>2020-01-09T13:19:46Z</time>
      </trkpt>
      <trkpt lat="43.51568" lon="5.3079">
        <ele>93.39</ele>
        <time>2020-01-09T13:19:53Z</time>
      </trkpt>
      <trkpt lat="43.51568" lon="5.30791">
        <ele>92.9</ele>
        <time>2020-01-09T13:19:54Z</time>
      </trkpt>
      <trkpt lat="43.51567" lon="5.30795">
        <ele>93.39</ele>
        <time>2020-01-09T13:20:09Z</time>
      </trkpt>
      <trkpt lat="43.51568" lon="5.30789">
        <ele>93.39</ele>
        <time>2020-01-09T13:20:19Z</time>
      </trkpt>
      <trkpt lat="43.51567" lon="5.30787">
        <ele>93.39</ele>
        <time>2020-01-09T13:20:20Z</time>
      </trkpt>
      <trkpt lat="43.51567" lon="5.30783">
        <ele>93.39</ele>
        <time>2020-01-09T13:20:21Z</time>
      </trkpt>
      <trkpt lat="43.51567" lon="5.30779">
        <ele>93.39</ele>
        <time>2020-01-09T13:20:22Z</time>
      </trkpt>
      <trkpt lat="43.51568" lon="5.30774">
        <ele>93.87</ele>
        <time>2020-01-09T13:20:23Z</time>
      </trkpt>
      <trkpt lat="43.51569" lon="5.3077">
        <ele>93.39</ele>
        <time>2020-01-09T13:20:24Z</time>
      </trkpt>
      <trkpt lat="43.51602" lon="5.30723">
        <ele>96.27</ele>
        <time>2020-01-09T13:20:37Z</time>
      </trkpt>
      <trkpt lat="43.51619" lon="5.30717">
        <ele>96.75</ele>
        <time>2020-01-09T13:20:42Z</time>
      </trkpt>
      <trkpt lat="43.51621" lon="5.30718">
        <ele>97.23</ele>
        <time>2020-01-09T13:20:43Z</time>
      </trkpt>
      <trkpt lat="43.51622" lon="5.30719">
        <ele>97.23</ele>
        <time>2020-01-09T13:20:44Z</time>
      </trkpt>
      <trkpt lat="43.51628" lon="5.30723">
        <ele>97.71</ele>
        <time>2020-01-09T13:20:48Z</time>
      </trkpt>
      <trkpt lat="43.51629" lon="5.30724">
        <ele>97.71</ele>
        <time>2020-01-09T13:20:49Z</time>
      </trkpt>
      <trkpt lat="43.51634" lon="5.30722">
        <ele>98.67</ele>
        <time>2020-01-09T13:21:04Z</time>
      </trkpt>
      <trkpt lat="43.51637" lon="5.30721">
        <ele>98.67</ele>
        <time>2020-01-09T13:21:19Z</time>
      </trkpt>
      <trkpt lat="43.51638" lon="5.3072">
        <ele>98.67</ele>
        <time>2020-01-09T13:21:30Z</time>
      </trkpt>
      <trkpt lat="43.51639" lon="5.30722">
        <ele>98.67</ele>
        <time>2020-01-09T13:21:46Z</time>
      </trkpt>
      <trkpt lat="43.51639" lon="5.30721">
        <ele>98.67</ele>
        <time>2020-01-09T13:22:02Z</time>
      </trkpt>
      <trkpt lat="43.51639" lon="5.3072">
        <ele>99.15</ele>
        <time>2020-01-09T13:22:25Z</time>
      </trkpt>
      <trkpt lat="43.51636" lon="5.30718">
        <ele>99.63</ele>
        <time>2020-01-09T13:22:48Z</time>
      </trkpt>
      <trkpt lat="43.51636" lon="5.30717">
        <ele>99.15</ele>
        <time>2020-01-09T13:23:04Z</time>
      </trkpt>
      <trkpt lat="43.51635" lon="5.30717">
        <ele>99.15</ele>
        <time>2020-01-09T13:23:20Z</time>
      </trkpt>
      <trkpt lat="43.51637" lon="5.30718">
        <ele>99.63</ele>
        <time>2020-01-09T13:23:36Z</time>
      </trkpt>
      <trkpt lat="43.51643" lon="5.30716">
        <ele>103</ele>
        <time>2020-01-09T13:23:48Z</time>
      </trkpt>
      <trkpt lat="43.51643" lon="5.30716">
        <ele>101.08</ele>
        <time>2020-01-09T13:23:49Z</time>
      </trkpt>
      <trkpt lat="43.5165" lon="5.30723">
        <ele>101.56</ele>
        <time>2020-01-09T13:24:02Z</time>
      </trkpt>
      <trkpt lat="43.51653" lon="5.30723">
        <ele>102.52</ele>
        <time>2020-01-09T13:24:14Z</time>
      </trkpt>
      <trkpt lat="43.51661" lon="5.30728">
        <ele>105.88</ele>
        <time>2020-01-09T13:24:24Z</time>
      </trkpt>
      <trkpt lat="43.5167" lon="5.30732">
        <ele>104.44</ele>
        <time>2020-01-09T13:24:37Z</time>
      </trkpt>
      <trkpt lat="43.51681" lon="5.30734">
        <ele>105.4</ele>
        <time>2020-01-09T13:24:50Z</time>
      </trkpt>
      <trkpt lat="43.51683" lon="5.30734">
        <ele>105.88</ele>
        <time>2020-01-09T13:24:55Z</time>
      </trkpt>
      <trkpt lat="43.51692" lon="5.30735">
        <ele>106.84</ele>
        <time>2020-01-09T13:25:07Z</time>
      </trkpt>
      <trkpt lat="43.51699" lon="5.30735">
        <ele>97.23</ele>
        <time>2020-01-09T13:25:14Z</time>
      </trkpt>
      <trkpt lat="43.51699" lon="5.30736">
        <ele>116.94</ele>
        <time>2020-01-09T13:25:15Z</time>
      </trkpt>
      <trkpt lat="43.517" lon="5.30736">
        <ele>109.25</ele>
        <time>2020-01-09T13:25:16Z</time>
      </trkpt>
      <trkpt lat="43.51701" lon="5.30736">
        <ele>107.32</ele>
        <time>2020-01-09T13:25:18Z</time>
      </trkpt>
      <trkpt lat="43.51713" lon="5.30743">
        <ele>108.77</ele>
        <time>2020-01-09T13:25:34Z</time>
      </trkpt>
      <trkpt lat="43.51723" lon="5.30742">
        <ele>109.73</ele>
        <time>2020-01-09T13:25:46Z</time>
      </trkpt>
      <trkpt lat="43.51735" lon="5.30737">
        <ele>110.69</ele>
        <time>2020-01-09T13:25:59Z</time>
      </trkpt>
      <trkpt lat="43.51745" lon="5.30729">
        <ele>112.13</ele>
        <time>2020-01-09T13:26:13Z</time>
      </trkpt>
      <trkpt lat="43.5175" lon="5.30726">
        <ele>112.61</ele>
        <time>2020-01-09T13:26:27Z</time>
      </trkpt>
      <trkpt lat="43.5176" lon="5.30726">
        <ele>113.57</ele>
        <time>2020-01-09T13:26:42Z</time>
      </trkpt>
      <trkpt lat="43.51769" lon="5.30722">
        <ele>114.53</ele>
        <time>2020-01-09T13:26:54Z</time>
      </trkpt>
      <trkpt lat="43.51775" lon="5.3072">
        <ele>108.77</ele>
        <time>2020-01-09T13:27:05Z</time>
      </trkpt>
      <trkpt lat="43.51775" lon="5.3072">
        <ele>120.3</ele>
        <time>2020-01-09T13:27:06Z</time>
      </trkpt>
      <trkpt lat="43.51775" lon="5.3072">
        <ele>116.46</ele>
        <time>2020-01-09T13:27:07Z</time>
      </trkpt>
      <trkpt lat="43.51777" lon="5.30718">
        <ele>115.5</ele>
        <time>2020-01-09T13:27:09Z</time>
      </trkpt>
      <trkpt lat="43.51785" lon="5.3071">
        <ele>116.46</ele>
        <time>2020-01-09T13:27:22Z</time>
      </trkpt>
      <trkpt lat="43.51787" lon="5.30708">
        <ele>116.46</ele>
        <time>2020-01-09T13:27:24Z</time>
      </trkpt>
      <trkpt lat="43.51795" lon="5.30694">
        <ele>117.42</ele>
        <time>2020-01-09T13:27:38Z</time>
      </trkpt>
      <trkpt lat="43.51799" lon="5.3069">
        <ele>120.3</ele>
        <time>2020-01-09T13:27:46Z</time>
      </trkpt>
      <trkpt lat="43.51803" lon="5.30685">
        <ele>118.38</ele>
        <time>2020-01-09T13:27:52Z</time>
      </trkpt>
      <trkpt lat="43.51813" lon="5.3067">
        <ele>119.34</ele>
        <time>2020-01-09T13:28:06Z</time>
      </trkpt>
      <trkpt lat="43.51825" lon="5.30658">
        <ele>120.3</ele>
        <time>2020-01-09T13:28:21Z</time>
      </trkpt>
      <trkpt lat="43.51826" lon="5.30657">
        <ele>120.3</ele>
        <time>2020-01-09T13:28:22Z</time>
      </trkpt>
      <trkpt lat="43.51837" lon="5.30647">
        <ele>121.26</ele>
        <time>2020-01-09T13:28:35Z</time>
      </trkpt>
      <trkpt lat="43.51847" lon="5.30642">
        <ele>122.22</ele>
        <time>2020-01-09T13:28:48Z</time>
      </trkpt>
      <trkpt lat="43.51856" lon="5.30632">
        <ele>123.67</ele>
        <time>2020-01-09T13:29:03Z</time>
      </trkpt>
      <trkpt lat="43.51863" lon="5.30625">
        <ele>125.11</ele>
        <time>2020-01-09T13:29:16Z</time>
      </trkpt>
      <trkpt lat="43.51871" lon="5.30625">
        <ele>126.07</ele>
        <time>2020-01-09T13:29:28Z</time>
      </trkpt>
      <trkpt lat="43.51884" lon="5.30617">
        <ele>127.99</ele>
        <time>2020-01-09T13:29:43Z</time>
      </trkpt>
      <trkpt lat="43.51895" lon="5.30606">
        <ele>129.43</ele>
        <time>2020-01-09T13:29:55Z</time>
      </trkpt>
      <trkpt lat="43.51905" lon="5.30602">
        <ele>130.88</ele>
        <time>2020-01-09T13:30:10Z</time>
      </trkpt>
      <trkpt lat="43.51912" lon="5.30603">
        <ele>131.84</ele>
        <time>2020-01-09T13:30:23Z</time>
      </trkpt>
      <trkpt lat="43.51914" lon="5.30602">
        <ele>131.84</ele>
        <time>2020-01-09T13:30:28Z</time>
      </trkpt>
      <trkpt lat="43.51921" lon="5.30611">
        <ele>132.8</ele>
        <time>2020-01-09T13:30:47Z</time>
      </trkpt>
      <trkpt lat="43.51926" lon="5.30609">
        <ele>133.76</ele>
        <time>2020-01-09T13:31:04Z</time>
      </trkpt>
      <trkpt lat="43.51926" lon="5.30609">
        <ele>133.76</ele>
        <time>2020-01-09T13:31:16Z</time>
      </trkpt>
      <trkpt lat="43.51926" lon="5.30609">
        <ele>137.13</ele>
        <time>2020-01-09T13:31:19Z</time>
      </trkpt>
      <trkpt lat="43.51933" lon="5.30609">
        <ele>136.64</ele>
        <time>2020-01-09T13:31:34Z</time>
      </trkpt>
      <trkpt lat="43.51934" lon="5.30618">
        <ele>137.13</ele>
        <time>2020-01-09T13:31:50Z</time>
      </trkpt>
      <trkpt lat="43.51937" lon="5.30622">
        <ele>136.64</ele>
        <time>2020-01-09T13:32:08Z</time>
      </trkpt>
      <trkpt lat="43.51939" lon="5.30623">
        <ele>137.13</ele>
        <time>2020-01-09T13:32:23Z</time>
      </trkpt>
      <trkpt lat="43.51944" lon="5.30628">
        <ele>137.61</ele>
        <time>2020-01-09T13:32:37Z</time>
      </trkpt>
      <trkpt lat="43.51949" lon="5.30641">
        <ele>138.09</ele>
        <time>2020-01-09T13:32:52Z</time>
      </trkpt>
      <trkpt lat="43.51954" lon="5.3064">
        <ele>139.53</ele>
        <time>2020-01-09T13:33:08Z</time>
      </trkpt>
      <trkpt lat="43.5196" lon="5.30642">
        <ele>140.49</ele>
        <time>2020-01-09T13:33:24Z</time>
      </trkpt>
      <trkpt lat="43.51963" lon="5.30644">
        <ele>140.97</ele>
        <time>2020-01-09T13:33:40Z</time>
      </trkpt>
      <trkpt lat="43.51962" lon="5.30642">
        <ele>140.97</ele>
        <time>2020-01-09T13:33:52Z</time>
      </trkpt>
      <trkpt lat="43.5196" lon="5.30635">
        <ele>140.97</ele>
        <time>2020-01-09T13:34:06Z</time>
      </trkpt>
      <trkpt lat="43.51959" lon="5.30635">
        <ele>140.97</ele>
        <time>2020-01-09T13:34:20Z</time>
      </trkpt>
      <trkpt lat="43.51959" lon="5.30631">
        <ele>141.45</ele>
        <time>2020-01-09T13:34:37Z</time>
      </trkpt>
      <trkpt lat="43.5197" lon="5.30622">
        <ele>142.41</ele>
        <time>2020-01-09T13:34:58Z</time>
      </trkpt>
      <trkpt lat="43.5197" lon="5.30621">
        <ele>141.93</ele>
        <time>2020-01-09T13:35:17Z</time>
      </trkpt>
      <trkpt lat="43.51979" lon="5.30616">
        <ele>142.89</ele>
        <time>2020-01-09T13:35:30Z</time>
      </trkpt>
      <trkpt lat="43.51985" lon="5.30609">
        <ele>143.37</ele>
        <time>2020-01-09T13:35:46Z</time>
      </trkpt>
      <trkpt lat="43.51988" lon="5.30614">
        <ele>144.34</ele>
        <time>2020-01-09T13:36:00Z</time>
      </trkpt>
      <trkpt lat="43.51989" lon="5.30617">
        <ele>144.34</ele>
        <time>2020-01-09T13:36:20Z</time>
      </trkpt>
      <trkpt lat="43.51988" lon="5.30622">
        <ele>144.82</ele>
        <time>2020-01-09T13:36:51Z</time>
      </trkpt>
      <trkpt lat="43.5199" lon="5.30625">
        <ele>145.3</ele>
        <time>2020-01-09T13:37:17Z</time>
      </trkpt>
      <trkpt lat="43.51989" lon="5.30622">
        <ele>145.3</ele>
        <time>2020-01-09T13:37:36Z</time>
      </trkpt>
      <trkpt lat="43.51992" lon="5.30615">
        <ele>146.26</ele>
        <time>2020-01-09T13:37:56Z</time>
      </trkpt>
      <trkpt lat="43.52" lon="5.30614">
        <ele>147.7</ele>
        <time>2020-01-09T13:38:14Z</time>
      </trkpt>
      <trkpt lat="43.52013" lon="5.30603">
        <ele>148.66</ele>
        <time>2020-01-09T13:38:32Z</time>
      </trkpt>
      <trkpt lat="43.52013" lon="5.30602">
        <ele>148.66</ele>
        <time>2020-01-09T13:38:50Z</time>
      </trkpt>
      <trkpt lat="43.52012" lon="5.306">
        <ele>148.66</ele>
        <time>2020-01-09T13:39:13Z</time>
      </trkpt>
      <trkpt lat="43.52014" lon="5.30599">
        <ele>149.14</ele>
        <time>2020-01-09T13:39:32Z</time>
      </trkpt>
      <trkpt lat="43.52023" lon="5.30595">
        <ele>149.14</ele>
        <time>2020-01-09T13:39:47Z</time>
      </trkpt>
      <trkpt lat="43.52022" lon="5.30596">
        <ele>149.14</ele>
        <time>2020-01-09T13:39:59Z</time>
      </trkpt>
      <trkpt lat="43.52019" lon="5.30595">
        <ele>149.14</ele>
        <time>2020-01-09T13:40:24Z</time>
      </trkpt>
      <trkpt lat="43.52017" lon="5.30596">
        <ele>149.14</ele>
        <time>2020-01-09T13:40:44Z</time>
      </trkpt>
      <trkpt lat="43.5202" lon="5.30599">
        <ele>149.14</ele>
        <time>2020-01-09T13:41:15Z</time>
      </trkpt>
      <trkpt lat="43.52017" lon="5.30597">
        <ele>149.14</ele>
        <time>2020-01-09T13:41:35Z</time>
      </trkpt>
      <trkpt lat="43.52017" lon="5.30597">
        <ele>149.14</ele>
        <time>2020-01-09T13:41:59Z</time>
      </trkpt>
      <trkpt lat="43.52017" lon="5.30598">
        <ele>149.14</ele>
        <time>2020-01-09T13:42:22Z</time>
      </trkpt>
      <trkpt lat="43.52016" lon="5.30597">
        <ele>149.62</ele>
        <time>2020-01-09T13:42:48Z</time>
      </trkpt>
      <trkpt lat="43.52015" lon="5.30596">
        <ele>149.62</ele>
        <time>2020-01-09T13:43:16Z</time>
      </trkpt>
      <trkpt lat="43.52015" lon="5.30597">
        <ele>150.1</ele>
        <time>2020-01-09T13:43:49Z</time>
      </trkpt>
      <trkpt lat="43.52013" lon="5.306">
        <ele>149.14</ele>
        <time>2020-01-09T13:44:06Z</time>
      </trkpt>
      <trkpt lat="43.5201" lon="5.30606">
        <ele>148.18</ele>
        <time>2020-01-09T13:44:25Z</time>
      </trkpt>
      <trkpt lat="43.52006" lon="5.30607">
        <ele>148.18</ele>
        <time>2020-01-09T13:44:44Z</time>
      </trkpt>
      <trkpt lat="43.52005" lon="5.3061">
        <ele>147.7</ele>
        <time>2020-01-09T13:45:03Z</time>
      </trkpt>
      <trkpt lat="43.52" lon="5.30613">
        <ele>144.34</ele>
        <time>2020-01-09T13:45:18Z</time>
      </trkpt>
      <trkpt lat="43.52" lon="5.30613">
        <ele>149.62</ele>
        <time>2020-01-09T13:45:19Z</time>
      </trkpt>
      <trkpt lat="43.51998" lon="5.30614">
        <ele>146.74</ele>
        <time>2020-01-09T13:45:36Z</time>
      </trkpt>
      <trkpt lat="43.51992" lon="5.30617">
        <ele>146.74</ele>
        <time>2020-01-09T13:45:52Z</time>
      </trkpt>
      <trkpt lat="43.51987" lon="5.30619">
        <ele>145.3</ele>
        <time>2020-01-09T13:46:08Z</time>
      </trkpt>
      <trkpt lat="43.51978" lon="5.3062">
        <ele>144.82</ele>
        <time>2020-01-09T13:46:28Z</time>
      </trkpt>
      <trkpt lat="43.51964" lon="5.30625">
        <ele>143.37</ele>
        <time>2020-01-09T13:46:40Z</time>
      </trkpt>
      <trkpt lat="43.51952" lon="5.30625">
        <ele>142.89</ele>
        <time>2020-01-09T13:46:53Z</time>
      </trkpt>
      <trkpt lat="43.51944" lon="5.30627">
        <ele>142.41</ele>
        <time>2020-01-09T13:47:07Z</time>
      </trkpt>
      <trkpt lat="43.51939" lon="5.30628">
        <ele>142.41</ele>
        <time>2020-01-09T13:47:22Z</time>
      </trkpt>
      <trkpt lat="43.51935" lon="5.30627">
        <ele>140.97</ele>
        <time>2020-01-09T13:47:38Z</time>
      </trkpt>
      <trkpt lat="43.5193" lon="5.30625">
        <ele>139.53</ele>
        <time>2020-01-09T13:47:49Z</time>
      </trkpt>
      <trkpt lat="43.51927" lon="5.30621">
        <ele>139.05</ele>
        <time>2020-01-09T13:48:06Z</time>
      </trkpt>
      <trkpt lat="43.51915" lon="5.3062">
        <ele>138.09</ele>
        <time>2020-01-09T13:48:19Z</time>
      </trkpt>
      <trkpt lat="43.51905" lon="5.30619">
        <ele>137.13</ele>
        <time>2020-01-09T13:48:31Z</time>
      </trkpt>
      <trkpt lat="43.519" lon="5.30621">
        <ele>136.64</ele>
        <time>2020-01-09T13:48:49Z</time>
      </trkpt>
      <trkpt lat="43.51899" lon="5.30623">
        <ele>136.64</ele>
        <time>2020-01-09T13:49:14Z</time>
      </trkpt>
      <trkpt lat="43.51897" lon="5.30626">
        <ele>136.16</ele>
        <time>2020-01-09T13:49:29Z</time>
      </trkpt>
      <trkpt lat="43.51894" lon="5.30625">
        <ele>134.24</ele>
        <time>2020-01-09T13:49:48Z</time>
      </trkpt>
      <trkpt lat="43.51891" lon="5.30628">
        <ele>134.24</ele>
        <time>2020-01-09T13:50:02Z</time>
      </trkpt>
      <trkpt lat="43.51881" lon="5.30636">
        <ele>133.76</ele>
        <time>2020-01-09T13:50:12Z</time>
      </trkpt>
      <trkpt lat="43.51861" lon="5.30648">
        <ele>131.84</ele>
        <time>2020-01-09T13:50:26Z</time>
      </trkpt>
      <trkpt lat="43.51855" lon="5.30652">
        <ele>130.88</ele>
        <time>2020-01-09T13:50:43Z</time>
      </trkpt>
      <trkpt lat="43.51853" lon="5.30652">
        <ele>130.4</ele>
        <time>2020-01-09T13:50:56Z</time>
      </trkpt>
      <trkpt lat="43.51849" lon="5.30661">
        <ele>128.95</ele>
        <time>2020-01-09T13:51:11Z</time>
      </trkpt>
      <trkpt lat="43.51839" lon="5.30668">
        <ele>127.99</ele>
        <time>2020-01-09T13:51:23Z</time>
      </trkpt>
      <trkpt lat="43.51832" lon="5.30672">
        <ele>127.51</ele>
        <time>2020-01-09T13:51:33Z</time>
      </trkpt>
      <trkpt lat="43.5183" lon="5.30673">
        <ele>130.88</ele>
        <time>2020-01-09T13:51:39Z</time>
      </trkpt>
      <trkpt lat="43.5183" lon="5.30673">
        <ele>127.51</ele>
        <time>2020-01-09T13:51:40Z</time>
      </trkpt>
      <trkpt lat="43.51821" lon="5.30685">
        <ele>126.55</ele>
        <time>2020-01-09T13:51:52Z</time>
      </trkpt>
      <trkpt lat="43.5181" lon="5.30693">
        <ele>125.59</ele>
        <time>2020-01-09T13:52:06Z</time>
      </trkpt>
      <trkpt lat="43.51806" lon="5.30698">
        <ele>125.11</ele>
        <time>2020-01-09T13:52:13Z</time>
      </trkpt>
      <trkpt lat="43.51799" lon="5.30712">
        <ele>124.63</ele>
        <time>2020-01-09T13:52:27Z</time>
      </trkpt>
      <trkpt lat="43.51798" lon="5.30713">
        <ele>124.15</ele>
        <time>2020-01-09T13:52:30Z</time>
      </trkpt>
      <trkpt lat="43.51796" lon="5.3072">
        <ele>123.19</ele>
        <time>2020-01-09T13:52:42Z</time>
      </trkpt>
      <trkpt lat="43.51791" lon="5.3073">
        <ele>122.71</ele>
        <time>2020-01-09T13:52:53Z</time>
      </trkpt>
      <trkpt lat="43.51779" lon="5.30734">
        <ele>121.74</ele>
        <time>2020-01-09T13:53:05Z</time>
      </trkpt>
      <trkpt lat="43.5177" lon="5.30737">
        <ele>121.26</ele>
        <time>2020-01-09T13:53:13Z</time>
      </trkpt>
      <trkpt lat="43.51755" lon="5.30749">
        <ele>119.82</ele>
        <time>2020-01-09T13:53:27Z</time>
      </trkpt>
      <trkpt lat="43.51744" lon="5.30752">
        <ele>118.38</ele>
        <time>2020-01-09T13:53:43Z</time>
      </trkpt>
      <trkpt lat="43.51731" lon="5.30752">
        <ele>117.42</ele>
        <time>2020-01-09T13:53:57Z</time>
      </trkpt>
      <trkpt lat="43.51729" lon="5.30752">
        <ele>116.94</ele>
        <time>2020-01-09T13:53:59Z</time>
      </trkpt>
      <trkpt lat="43.51717" lon="5.30754">
        <ele>115.98</ele>
        <time>2020-01-09T13:54:11Z</time>
      </trkpt>
      <trkpt lat="43.51707" lon="5.30754">
        <ele>115.5</ele>
        <time>2020-01-09T13:54:19Z</time>
      </trkpt>
      <trkpt lat="43.51694" lon="5.30754">
        <ele>114.53</ele>
        <time>2020-01-09T13:54:32Z</time>
      </trkpt>
      <trkpt lat="43.51682" lon="5.30755">
        <ele>113.09</ele>
        <time>2020-01-09T13:54:43Z</time>
      </trkpt>
      <trkpt lat="43.51675" lon="5.30755">
        <ele>113.09</ele>
        <time>2020-01-09T13:54:56Z</time>
      </trkpt>
      <trkpt lat="43.51669" lon="5.30755">
        <ele>112.61</ele>
        <time>2020-01-09T13:55:03Z</time>
      </trkpt>
      <trkpt lat="43.51666" lon="5.30754">
        <ele>112.13</ele>
        <time>2020-01-09T13:55:06Z</time>
      </trkpt>
      <trkpt lat="43.51659" lon="5.3075">
        <ele>110.69</ele>
        <time>2020-01-09T13:55:16Z</time>
      </trkpt>
      <trkpt lat="43.51654" lon="5.30744">
        <ele>110.69</ele>
        <time>2020-01-09T13:55:24Z</time>
      </trkpt>
      <trkpt lat="43.51642" lon="5.30734">
        <ele>109.73</ele>
        <time>2020-01-09T13:55:38Z</time>
      </trkpt>
      <trkpt lat="43.51634" lon="5.30728">
        <ele>108.77</ele>
        <time>2020-01-09T13:55:48Z</time>
      </trkpt>
    </trkseg>
  </trk>
</gpx>